createdAt,value
2022-12-23T00:01:26.735Z,99616.63
2022-12-23T00:04:00.357Z,99618.56
2022-12-23T00:06:28.717Z,99628.91
2022-12-23T00:08:58.872Z,99631.53
2022-12-23T00:11:28.360Z,99628.81
2022-12-23T00:14:20.412Z,99623.69
2022-12-23T00:16:51.571Z,99625.38
2022-12-23T00:19:21.315Z,99634.91
2022-12-23T00:21:49.857Z,99623.50
2022-12-23T00:24:18.238Z,99619.56
2022-12-23T00:26:46.713Z,99628.34
2022-12-23T00:29:16.917Z,99614.50
2022-12-23T00:31:45.592Z,99628.28
2022-12-23T00:34:14.089Z,99616.38
2022-12-23T00:36:44.542Z,99610.13
2022-12-23T00:39:31.836Z,99623.78
2022-12-23T00:42:17.617Z,99612.66
2022-12-23T00:44:46.241Z,99604.94
2022-12-23T00:47:36.339Z,99604.94
2022-12-23T00:50:03.671Z,99605.84
2022-12-23T00:52:33.294Z,99600.81
2022-12-23T00:55:01.617Z,99603.59
2022-12-23T00:57:30.027Z,99610.00
2022-12-23T00:59:58.460Z,99614.47
2022-12-23T01:02:44.163Z,99614.56
2022-12-23T01:05:29.929Z,99606.91
2022-12-23T01:07:59.580Z,99604.38
2022-12-23T01:10:27.893Z,99594.94
2022-12-23T01:12:56.168Z,99589.78
2022-12-23T01:15:24.506Z,99592.44
2022-12-23T01:17:52.834Z,99585.63
2022-12-23T01:20:21.057Z,99594.34
2022-12-23T01:22:49.367Z,99593.41
2022-12-23T01:25:22.643Z,99588.41
2022-12-23T01:27:50.973Z,99590.38
2022-12-23T01:30:20.901Z,99582.72
2022-12-23T01:32:49.306Z,99573.91
2022-12-23T01:35:17.683Z,99574.72
2022-12-23T01:37:45.850Z,99572.22
2022-12-23T01:40:14.231Z,99579.13
2022-12-23T01:42:45.485Z,99572.22
2022-12-23T01:45:29.035Z,99564.34
2022-12-23T01:48:00.285Z,99564.28
2022-12-23T01:50:32.851Z,99569.44
2022-12-23T01:53:07.975Z,99566.56
2022-12-23T01:55:41.853Z,99568.09
2022-12-23T01:58:15.116Z,99565.56
2022-12-23T02:01:06.773Z,99549.31
2022-12-23T02:03:44.725Z,99558.06
2022-12-23T02:06:37.263Z,99552.84
2022-12-23T02:09:18.880Z,99552.78
2022-12-23T02:12:34.617Z,99549.44
2022-12-23T02:15:34.228Z,99548.84
2022-12-23T02:18:14.013Z,99546.47
2022-12-23T02:21:06.889Z,99544.78
2022-12-23T02:24:01.711Z,99553.38
2022-12-23T02:27:00.897Z,99550.09
2022-12-23T02:30:15.687Z,99555.66
2022-12-23T02:33:03.565Z,99545.53
2022-12-23T02:35:40.124Z,99539.50
2022-12-23T02:38:11.819Z,99541.47
2022-12-23T02:40:48.469Z,99547.72
2022-12-23T02:43:21.295Z,99547.84
2022-12-23T02:45:54.564Z,99559.13
2022-12-23T02:48:28.860Z,99554.75
2022-12-23T02:50:59.148Z,99560.81
2022-12-23T02:53:32.975Z,99553.09
2022-12-23T02:56:03.258Z,99550.50
2022-12-23T02:58:36.688Z,99564.13
2022-12-23T03:01:08.238Z,99554.75
2022-12-23T03:03:39.212Z,99555.59
2022-12-23T03:06:16.829Z,99560.75
2022-12-23T03:08:46.148Z,99561.56
2022-12-23T03:11:17.402Z,99560.66
2022-12-23T03:14:07.130Z,99556.53
2022-12-23T03:16:43.889Z,99553.91
2022-12-23T03:19:21.196Z,99565.09
2022-12-23T03:21:56.918Z,99552.06
2022-12-23T03:24:37.575Z,99546.88
2022-12-23T03:27:11.469Z,99548.53
2022-12-23T03:29:45.190Z,99553.78
2022-12-23T03:32:15.854Z,99542.63
2022-12-23T03:34:49.664Z,99551.25
2022-12-23T03:37:20.418Z,99549.72
2022-12-23T03:39:53.733Z,99548.78
2022-12-23T03:42:27.492Z,99539.31
2022-12-23T03:45:28.391Z,99548.69
2022-12-23T03:47:52.216Z,99533.09
2022-12-23T03:50:24.516Z,99538.44
2022-12-23T03:52:58.665Z,99540.13
2022-12-23T03:55:32.950Z,99537.38
2022-12-23T03:58:08.018Z,99536.53
2022-12-23T04:00:42.364Z,99536.44
2022-12-23T04:03:19.951Z,99530.31
2022-12-23T04:05:54.488Z,99533.75
2022-12-23T04:08:27.510Z,99536.34
2022-12-23T04:10:55.807Z,99531.22
2022-12-23T04:13:23.995Z,99525.94
2022-12-23T04:15:52.262Z,99525.09
2022-12-23T04:18:20.502Z,99515.59
2022-12-23T04:20:50.037Z,99505.97
2022-12-23T04:23:18.200Z,99515.66
2022-12-23T04:25:46.378Z,99519.88
2022-12-23T04:28:14.585Z,99526.13
2022-12-23T04:30:42.781Z,99520.06
2022-12-23T04:33:12.031Z,99534.06
2022-12-23T04:35:40.453Z,99522.06
2022-12-23T04:38:10.603Z,99533.22
2022-12-23T04:40:38.754Z,99539.44
2022-12-23T04:43:06.907Z,99537.63
2022-12-23T04:45:35.069Z,99537.88
2022-12-23T04:48:03.232Z,99538.00
2022-12-23T04:50:31.490Z,99534.81
2022-12-23T04:52:59.658Z,99537.56
2022-12-23T04:55:29.269Z,99527.34
2022-12-23T04:57:57.449Z,99527.59
2022-12-23T05:00:25.782Z,99525.75
2022-12-23T05:02:54.069Z,99534.47
2022-12-23T05:05:22.380Z,99524.09
2022-12-23T05:07:51.265Z,99522.47
2022-12-23T05:10:19.596Z,99532.13
2022-12-23T05:12:49.157Z,99527.22
2022-12-23T05:15:17.352Z,99522.06
2022-12-23T05:17:45.541Z,99526.44
2022-12-23T05:20:13.770Z,99529.19
2022-12-23T05:22:42.022Z,99521.47
2022-12-23T05:25:10.887Z,99519.06
2022-12-23T05:27:39.032Z,99519.06
2022-12-23T05:32:55.722Z,99528.84
2022-12-23T05:35:24.587Z,99516.88
2022-12-23T05:37:53.121Z,99515.28
2022-12-23T05:40:23.967Z,99525.56
2022-12-23T05:42:55.703Z,99529.84
2022-12-23T05:45:24.096Z,99540.97
2022-12-23T05:47:52.321Z,99546.13
2022-12-23T05:50:21.943Z,99554.19
2022-12-23T05:52:50.166Z,99549.13
2022-12-23T05:55:18.494Z,99551.22
2022-12-23T05:57:46.643Z,99551.38
2022-12-23T06:00:16.670Z,99546.97
2022-12-23T06:02:49.980Z,99552.28
2022-12-23T06:05:23.041Z,99541.97
2022-12-23T06:07:51.242Z,99548.94
2022-12-23T06:10:19.835Z,99537.59
2022-12-23T06:12:48.225Z,99542.78
2022-12-23T06:15:16.890Z,99537.09
2022-12-23T06:17:45.015Z,99541.25
2022-12-23T06:20:20.481Z,99536.06
2022-12-23T06:22:50.587Z,99539.38
2022-12-23T06:25:18.782Z,99542.72
2022-12-23T06:27:47.314Z,99544.28
2022-12-23T06:30:15.810Z,99552.25
2022-12-23T06:32:44.021Z,99540.06
2022-12-23T06:35:12.203Z,99541.84
2022-12-23T06:37:40.470Z,99526.22
2022-12-23T06:40:11.514Z,99544.41
2022-12-23T06:42:39.839Z,99542.03
2022-12-23T06:45:09.209Z,99541.25
2022-12-23T06:47:37.484Z,99547.16
2022-12-23T06:50:06.810Z,99565.56
2022-12-23T06:52:34.948Z,99562.00
2022-12-23T06:55:03.159Z,99568.88
2022-12-23T06:57:33.130Z,99559.31
2022-12-23T07:00:01.439Z,99575.63
2022-12-23T07:02:30.191Z,99594.72
2022-12-23T07:04:58.808Z,99606.03
2022-12-23T07:07:26.990Z,99599.06
2022-12-23T07:09:55.279Z,99610.19
2022-12-23T07:12:23.495Z,99615.53
2022-12-23T07:14:53.051Z,99620.75
2022-12-23T07:17:21.142Z,99605.25
2022-12-23T07:19:50.494Z,99609.69
2022-12-23T07:22:18.851Z,99588.09
2022-12-23T07:24:47.483Z,99594.00
2022-12-23T07:27:15.733Z,99582.63
2022-12-23T07:29:44.033Z,99573.75
2022-12-23T07:32:14.771Z,99562.50
2022-12-23T07:34:42.963Z,99568.34
2022-12-23T07:37:11.195Z,99567.50
2022-12-23T07:39:39.520Z,99562.34
2022-12-23T07:44:56.024Z,99578.47
2022-12-23T07:47:25.645Z,99573.19
2022-12-23T07:49:53.810Z,99563.16
2022-12-23T07:52:22.053Z,99559.78
2022-12-23T07:54:50.229Z,99563.97
2022-12-23T07:57:18.499Z,99550.25
2022-12-23T07:59:46.861Z,99551.59
2022-12-23T08:02:15.315Z,99554.84
2022-12-23T08:04:46.600Z,99556.38
2022-12-23T08:07:15.010Z,99551.19
2022-12-23T08:09:43.207Z,99555.22
2022-12-23T08:12:11.756Z,99547.75
2022-12-23T08:14:39.971Z,99548.97
2022-12-23T08:17:08.320Z,99557.25
2022-12-23T08:19:36.572Z,99560.63
2022-12-23T08:22:06.231Z,99551.66
2022-12-23T08:24:34.382Z,99560.47
2022-12-23T08:27:02.550Z,99546.00
2022-12-23T08:29:36.030Z,99546.06
2022-12-23T08:32:04.703Z,99535.13
2022-12-23T08:34:32.918Z,99542.94
2022-12-23T08:37:01.434Z,99545.75
2022-12-23T08:39:31.143Z,99551.03
2022-12-23T08:41:59.434Z,99551.03
2022-12-23T08:44:28.427Z,99545.06
2022-12-23T08:46:57.261Z,99543.94
2022-12-23T08:49:25.589Z,99527.69
2022-12-23T08:51:54.338Z,99524.38
2022-12-23T08:54:23.926Z,99523.38
2022-12-23T08:56:57.142Z,99505.06
2022-12-23T08:59:25.787Z,99464.13
2022-12-23T09:01:54.180Z,99499.00
2022-12-23T09:04:22.705Z,99514.94
2022-12-23T09:06:50.937Z,99520.47
2022-12-23T09:09:19.115Z,99513.97
2022-12-23T09:11:47.344Z,99515.56
2022-12-23T09:14:16.909Z,99521.72
2022-12-23T09:16:45.109Z,99521.78
2022-12-23T09:19:13.281Z,99525.41
2022-12-23T09:21:41.487Z,99520.97
2022-12-23T09:24:09.753Z,99532.09
2022-12-23T09:26:38.040Z,99538.13
2022-12-23T09:29:06.317Z,99540.81
2022-12-23T09:31:37.617Z,99524.56
2022-12-23T09:34:07.158Z,99530.38
2022-12-23T09:36:35.394Z,99526.25
2022-12-23T09:39:03.795Z,99514.97
2022-12-23T09:41:46.480Z,99516.41
2022-12-23T09:44:34.528Z,99510.03
2022-12-23T09:47:07.249Z,99507.28
2022-12-23T09:49:37.928Z,99499.44
2022-12-23T09:52:11.987Z,99506.34
2022-12-23T09:54:46.996Z,99513.41
2022-12-23T09:57:23.393Z,99508.38
2022-12-23T10:00:04.477Z,99495.16
2022-12-23T10:02:43.078Z,99483.28
2022-12-23T10:05:23.325Z,99497.16
2022-12-23T10:07:55.094Z,99488.41
2022-12-23T10:10:34.846Z,99474.44
2022-12-23T10:13:06.200Z,99462.00
2022-12-23T10:15:39.141Z,99468.47
2022-12-23T10:18:18.628Z,99476.13
2022-12-23T10:20:52.594Z,99469.78
2022-12-23T10:23:32.590Z,99466.50
2022-12-23T10:26:05.385Z,99473.41
2022-12-23T10:28:33.280Z,99470.91
2022-12-23T10:34:04.035Z,99456.63
2022-12-23T10:36:42.347Z,99442.59
2022-12-23T10:39:21.498Z,99447.81
2022-12-23T10:41:59.211Z,99448.53
2022-12-23T10:44:50.137Z,99437.25
2022-12-23T10:47:26.739Z,99444.09
2022-12-23T10:50:09.962Z,99435.53
2022-12-23T10:52:41.314Z,99427.41
2022-12-23T10:55:22.469Z,99424.66
2022-12-23T10:57:51.850Z,99431.81
2022-12-23T11:00:24.494Z,99440.31
2022-12-23T11:03:09.706Z,99443.84
2022-12-23T11:05:39.646Z,99442.19
2022-12-23T11:08:07.959Z,99442.13
2022-12-23T11:10:36.693Z,99436.84
2022-12-23T11:13:04.945Z,99438.53
2022-12-23T11:15:35.063Z,99435.94
2022-12-23T11:18:08.573Z,99431.81
2022-12-23T11:20:38.042Z,99425.91
2022-12-23T11:23:23.194Z,99416.25
2022-12-23T11:26:02.503Z,99417.00
2022-12-23T11:28:31.981Z,99415.06
2022-12-23T11:31:05.696Z,99421.16
2022-12-23T11:33:36.669Z,99414.22
2022-12-23T11:36:08.217Z,99415.81
2022-12-23T11:38:48.659Z,99427.84
2022-12-23T11:41:21.979Z,99415.72
2022-12-23T11:43:57.784Z,99420.91
2022-12-23T11:46:28.824Z,99433.91
2022-12-23T11:49:15.291Z,99429.53
2022-12-23T11:51:44.065Z,99431.06
2022-12-23T11:54:20.361Z,99420.91
2022-12-23T11:56:52.535Z,99430.25
2022-12-23T11:59:30.074Z,99429.31
2022-12-23T12:02:00.758Z,99422.97
2022-12-23T12:04:33.745Z,99418.88
2022-12-23T12:07:03.133Z,99440.34
2022-12-23T12:09:33.912Z,99422.97
2022-12-23T12:12:06.610Z,99448.34
2022-12-23T12:14:43.134Z,99438.06
2022-12-23T12:17:19.220Z,99432.69
2022-12-23T12:19:57.950Z,99447.47
2022-12-23T12:22:33.863Z,99450.97
2022-12-23T12:25:13.832Z,99441.09
2022-12-23T12:27:45.402Z,99447.50
2022-12-23T12:30:19.334Z,99459.50
2022-12-23T12:32:55.196Z,99447.22
2022-12-23T12:35:28.478Z,99447.13
2022-12-23T12:38:01.911Z,99441.72
2022-12-23T12:40:37.547Z,99438.47
2022-12-23T12:43:18.127Z,99428.00
2022-12-23T12:45:52.382Z,99423.66
2022-12-23T12:48:42.399Z,99432.19
2022-12-23T12:51:18.211Z,99427.94
2022-12-23T12:54:04.994Z,99424.75
2022-12-23T12:56:41.939Z,99436.50
2022-12-23T12:59:17.201Z,99431.16
2022-12-23T13:01:54.816Z,99445.63
2022-12-23T13:04:53.286Z,99434.25
2022-12-23T13:07:30.892Z,99437.00
2022-12-23T13:10:08.003Z,99431.88
2022-12-23T13:12:51.452Z,99441.47
2022-12-23T13:15:26.035Z,99431.56
2022-12-23T13:18:12.933Z,99430.66
2022-12-23T13:20:47.659Z,99446.03
2022-12-23T13:23:42.786Z,99435.47
2022-12-23T13:26:19.130Z,99450.69
2022-12-23T13:28:57.521Z,99438.22
2022-12-23T13:31:41.570Z,99434.16
2022-12-23T13:34:24.050Z,99435.03
2022-12-23T13:37:03.059Z,99424.78
2022-12-23T13:39:46.854Z,99443.50
2022-12-23T13:42:31.311Z,99436.69
2022-12-23T13:45:04.948Z,99447.44
2022-12-23T13:47:44.417Z,99424.22
2022-12-23T13:50:18.371Z,99444.75
2022-12-23T13:53:02.965Z,99448.09
2022-12-23T13:55:49.063Z,99439.50
2022-12-23T13:58:19.701Z,99430.84
2022-12-23T14:00:59.134Z,99435.78
2022-12-23T14:03:34.835Z,99437.28
2022-12-23T14:06:44.128Z,99437.47
2022-12-23T14:09:17.079Z,99452.19
2022-12-23T14:11:46.301Z,99454.84
2022-12-23T14:14:24.582Z,99448.09
2022-12-23T14:17:08.532Z,99439.84
2022-12-23T14:19:59.755Z,99443.19
2022-12-23T14:22:52.937Z,99447.44
2022-12-23T14:25:38.419Z,99449.38
2022-12-23T14:28:19.584Z,99447.78
2022-12-23T14:30:48.689Z,99448.88
2022-12-23T14:33:28.300Z,99449.47
2022-12-23T14:35:59.407Z,99452.56
2022-12-23T14:38:38.258Z,99449.84
2022-12-23T14:41:25.408Z,99449.22
2022-12-23T14:43:59.805Z,99467.19
2022-12-23T14:46:58.732Z,99461.19
2022-12-23T14:49:41.465Z,99458.69
2022-12-23T14:52:44.274Z,99461.00
2022-12-23T14:55:45.138Z,99463.56
2022-12-23T14:58:42.972Z,99452.25
2022-12-23T15:01:16.852Z,99455.63
2022-12-23T15:03:48.822Z,99466.97
2022-12-23T15:06:21.944Z,99469.84
2022-12-23T15:08:52.371Z,99476.78
2022-12-23T15:11:28.413Z,99478.72
2022-12-23T15:13:58.487Z,99480.53
2022-12-23T15:16:35.253Z,99479.81
2022-12-23T15:19:14.607Z,99491.06
2022-12-23T15:21:47.559Z,99488.50
2022-12-23T15:24:21.255Z,99496.22
2022-12-23T15:27:24.485Z,99498.66
2022-12-23T15:29:45.091Z,99487.16
2022-12-23T15:32:13.438Z,99498.16
2022-12-23T15:34:43.109Z,99484.31
2022-12-23T15:37:17.132Z,99489.28
2022-12-23T15:39:47.061Z,99464.47
2022-12-23T15:42:23.019Z,99493.63
2022-12-23T15:44:51.536Z,99490.22
2022-12-23T15:47:30.264Z,99479.88
2022-12-23T15:50:00.523Z,99468.78
2022-12-23T15:52:31.798Z,99454.94
2022-12-23T15:55:03.921Z,99461.84
2022-12-23T15:57:32.700Z,99463.06
2022-12-23T16:00:01.307Z,99477.50
2022-12-23T16:05:27.943Z,99467.53
2022-12-23T16:08:12.871Z,99474.00
2022-12-23T16:10:41.981Z,99483.59
2022-12-23T16:13:19.195Z,99481.06
2022-12-23T16:15:47.930Z,99482.38
2022-12-23T16:18:22.945Z,99465.50
2022-12-23T16:20:54.704Z,99475.81
2022-12-23T16:23:25.606Z,99487.94
2022-12-23T16:25:54.683Z,99474.97
2022-12-23T16:28:27.671Z,99461.22
2022-12-23T16:30:58.323Z,99471.66
2022-12-23T16:33:37.066Z,99477.63
2022-12-23T16:36:21.522Z,99475.06
2022-12-23T16:38:52.709Z,99478.44
2022-12-23T16:41:21.868Z,99473.16
2022-12-23T16:43:52.857Z,99472.22
2022-12-23T16:46:23.530Z,99479.22
2022-12-23T16:48:55.617Z,99478.47
2022-12-23T16:51:24.792Z,99467.25
2022-12-23T16:53:56.550Z,99466.28
2022-12-23T16:56:28.163Z,99467.19
2022-12-23T16:58:56.291Z,99464.66
2022-12-23T17:01:27.781Z,99462.09
2022-12-23T17:03:57.081Z,99443.63
2022-12-23T17:06:29.495Z,99460.72
2022-12-23T17:08:59.167Z,99467.53
2022-12-23T17:11:36.805Z,99463.28
2022-12-23T17:14:10.518Z,99462.41
2022-12-23T17:16:43.785Z,99461.81
2022-12-23T17:19:12.193Z,99456.81
2022-12-23T17:21:43.275Z,99467.47
2022-12-23T17:24:18.521Z,99457.03
2022-12-23T17:26:46.796Z,99449.31
2022-12-23T17:29:15.068Z,99460.47
2022-12-23T17:31:44.384Z,99463.00
2022-12-23T17:34:16.876Z,99463.00
2022-12-23T17:36:49.900Z,99456.78
2022-12-23T17:39:22.606Z,99455.84
2022-12-23T17:41:51.578Z,99462.72
2022-12-23T17:44:20.564Z,99465.28
2022-12-23T17:46:48.818Z,99466.97
2022-12-23T17:49:16.995Z,99461.72
2022-12-23T17:51:45.300Z,99460.97
2022-12-23T17:54:24.496Z,99461.56
2022-12-23T17:56:53.418Z,99452.13
2022-12-23T17:59:21.819Z,99461.38
2022-12-23T18:01:50.370Z,99459.97
2022-12-23T18:04:18.713Z,99454.06
2022-12-23T18:06:46.880Z,99453.31
2022-12-23T18:09:15.038Z,99442.06
2022-12-23T18:11:46.638Z,99447.19
2022-12-23T18:14:18.432Z,99440.28
2022-12-23T18:16:46.792Z,99437.59
2022-12-23T18:19:18.859Z,99443.72
2022-12-23T18:21:47.538Z,99436.84
2022-12-23T18:24:16.043Z,99439.47
2022-12-23T18:26:45.745Z,99439.28
2022-12-23T18:29:14.003Z,99438.41
2022-12-23T18:31:51.444Z,99444.22
2022-12-23T18:34:21.065Z,99450.41
2022-12-23T18:36:51.923Z,99454.56
2022-12-23T18:39:20.328Z,99445.06
2022-12-23T18:41:50.083Z,99446.09
2022-12-23T18:44:20.852Z,99457.78
2022-12-23T18:46:49.736Z,99463.06
2022-12-23T18:49:18.023Z,99456.19
2022-12-23T18:51:46.318Z,99449.97
2022-12-23T18:54:15.565Z,99440.88
2022-12-23T18:56:43.927Z,99457.16
2022-12-23T18:59:22.822Z,99459.72
2022-12-23T19:01:58.266Z,99449.28
2022-12-23T19:04:26.890Z,99466.34
2022-12-23T19:06:55.906Z,99458.53
2022-12-23T19:09:25.807Z,99476.78
2022-12-23T19:11:55.099Z,99478.59
2022-12-23T19:14:24.709Z,99476.72
2022-12-23T19:16:53.170Z,99476.66
2022-12-23T19:19:21.631Z,99462.75
2022-12-23T19:21:49.913Z,99467.25
2022-12-23T19:24:18.222Z,99493.13
2022-12-23T19:26:46.472Z,99484.81
2022-12-23T19:29:14.609Z,99491.53
2022-12-23T19:31:44.241Z,99488.97
2022-12-23T19:34:15.464Z,99479.44
2022-12-23T19:36:44.937Z,99480.19
2022-12-23T19:39:16.892Z,99493.78
2022-12-23T19:41:45.822Z,99495.78
2022-12-23T19:44:14.346Z,99493.97
2022-12-23T19:46:44.231Z,99492.28
2022-12-23T19:49:19.562Z,99487.97
2022-12-23T19:51:49.018Z,99506.22
2022-12-23T19:54:17.410Z,99502.69
2022-12-23T19:56:46.005Z,99492.38
2022-12-23T19:59:14.669Z,99498.41
2022-12-23T20:01:45.306Z,99487.56
2022-12-23T20:04:14.032Z,99509.38
2022-12-23T20:06:46.124Z,99507.94
2022-12-23T20:09:14.946Z,99513.06
2022-12-23T20:11:44.767Z,99515.81
2022-12-23T20:14:15.548Z,99502.66
2022-12-23T20:16:45.742Z,99508.69
2022-12-23T20:19:14.322Z,99506.19
2022-12-23T20:21:42.753Z,99498.34
2022-12-23T20:24:11.305Z,99501.72
2022-12-23T20:26:39.823Z,99484.63
2022-12-23T20:29:07.981Z,99482.47
2022-12-23T20:31:38.404Z,99468.66
2022-12-23T20:34:09.795Z,99479.19
2022-12-23T20:36:38.486Z,99478.31
2022-12-23T20:39:07.622Z,99478.34
2022-12-23T20:41:36.351Z,99466.06
2022-12-23T20:46:53.244Z,99465.94
2022-12-23T20:49:23.350Z,99459.91
2022-12-23T20:51:51.642Z,99454.59
2022-12-23T20:54:19.844Z,99446.72
2022-12-23T20:56:48.072Z,99454.38
2022-12-23T20:59:16.285Z,99439.63
2022-12-23T21:01:44.732Z,99443.16
2022-12-23T21:04:15.994Z,99444.84
2022-12-23T21:06:46.521Z,99453.47
2022-12-23T21:09:16.047Z,99453.31
2022-12-23T21:11:46.928Z,99443.75
2022-12-23T21:14:16.206Z,99448.09
2022-12-23T21:16:44.819Z,99463.00
2022-12-23T21:19:17.210Z,99471.75
2022-12-23T21:21:47.650Z,99468.22
2022-12-23T21:24:16.000Z,99461.34
2022-12-23T21:26:48.941Z,99437.13
2022-12-23T21:29:21.969Z,99439.47
2022-12-23T21:31:50.180Z,99419.69
2022-12-23T21:34:18.373Z,99429.28
2022-12-23T21:36:48.037Z,99435.34
2022-12-23T21:39:17.373Z,99430.91
2022-12-23T21:41:46.322Z,99430.72
2022-12-23T21:44:15.140Z,99432.44
2022-12-23T21:46:44.048Z,99430.59
2022-12-23T21:49:12.622Z,99421.03
2022-12-23T21:51:41.718Z,99412.31
2022-12-23T21:54:12.680Z,99411.13
2022-12-23T21:56:47.295Z,99411.13
2022-12-23T21:59:16.191Z,99414.41
2022-12-23T22:01:44.718Z,99415.34
2022-12-23T22:04:13.071Z,99415.97
2022-12-23T22:06:44.687Z,99402.97
2022-12-23T22:09:16.458Z,99383.88
2022-12-23T22:11:45.424Z,99396.31
2022-12-23T22:14:19.772Z,99388.72
2022-12-23T22:16:48.593Z,99367.09
2022-12-23T22:19:18.197Z,99337.31
2022-12-23T22:21:46.596Z,99347.56
2022-12-23T22:24:16.498Z,99337.06
2022-12-23T22:26:44.871Z,99325.31
2022-12-23T22:29:13.271Z,99339.97
2022-12-23T22:31:44.249Z,99329.78
2022-12-23T22:34:15.273Z,99341.66
2022-12-23T22:36:43.611Z,99332.81
2022-12-23T22:39:19.397Z,99342.00
2022-12-23T22:41:50.319Z,99338.38
2022-12-23T22:44:19.400Z,99340.13
2022-12-23T22:46:47.673Z,99341.75
2022-12-23T22:49:16.904Z,99328.84
2022-12-23T22:51:45.451Z,99327.13
2022-12-23T22:54:14.323Z,99336.31
2022-12-23T22:56:43.562Z,99325.31
2022-12-23T22:59:20.941Z,99325.53
2022-12-23T23:01:50.777Z,99310.63
2022-12-23T23:04:19.462Z,99330.09
2022-12-23T23:06:47.661Z,99324.31
2022-12-23T23:09:18.119Z,99323.19
2022-12-23T23:11:46.984Z,99323.19
2022-12-23T23:14:17.304Z,99334.50
2022-12-23T23:16:45.632Z,99337.81
2022-12-23T23:19:15.306Z,99330.56
2022-12-23T23:21:43.639Z,99330.38
2022-12-23T23:24:12.136Z,99321.34
2022-12-23T23:26:40.410Z,99329.06
2022-12-23T23:29:08.629Z,99324.09
2022-12-23T23:31:43.335Z,99325.00
2022-12-23T23:34:12.167Z,99327.06
2022-12-23T23:36:40.765Z,99335.59
2022-12-23T23:39:13.806Z,99333.91
2022-12-23T23:41:42.246Z,99317.31
2022-12-23T23:44:11.639Z,99306.72
2022-12-23T23:46:41.415Z,99295.81
2022-12-23T23:49:09.733Z,99297.00
2022-12-23T23:51:37.944Z,99287.97
2022-12-23T23:54:06.258Z,99297.53
2022-12-23T23:56:38.707Z,99301.84
2022-12-23T23:59:07.785Z,99305.22
